Time;durP1;ratioP1;P1;durP2;ratioP2;P2;SDS_P1;SDS_P2;PMS_P1;PMS_P2;Temp;Humidity;BMP_temperature;BMP_pressure;BME280_temperature;BME280_humidity;BME280_pressure;Samples;Min_cycle;Max_cycle;Signal;HPM_P1;HPM_P2
2023/03/08 00:00:25;;;;;;;16.95;6.63;;;;;;;6.23;55.02;98516.09;4990489;28;20525;-83
2023/03/08 00:02:52;;;;;;;14.90;6.55;;;;;;;6.25;55.00;98508.84;4967366;28;20549;-83
2023/03/08 00:05:19;;;;;;;19.05;7.55;;;;;;;6.26;54.94;98512.34;4960336;28;20051;-83
2023/03/08 00:07:46;;;;;;;15.23;6.65;;;;;;;6.28;55.10;98518.28;4980712;28;20047;-83
2023/03/08 00:10:13;;;;;;;14.50;6.85;;;;;;;6.28;54.96;98527.03;5001809;28;20105;-83
2023/03/08 00:12:40;;;;;;;14.05;6.88;;;;;;;6.28;55.02;98528.81;4974656;28;20042;-83
2023/03/08 00:15:07;;;;;;;17.63;7.20;;;;;;;6.28;55.19;98529.69;4969674;28;20401;-83
2023/03/08 00:17:36;;;;;;;13.57;6.85;;;;;;;6.28;54.89;98524.41;4949411;28;20437;-83
2023/03/08 00:20:05;;;;;;;12.02;5.95;;;;;;;6.26;55.15;98533.44;4982470;28;20109;-83
2023/03/08 00:22:39;;;;;;;13.05;6.68;;;;;;;6.25;54.65;98527.31;4985004;28;20054;-83
2023/03/08 00:25:07;;;;;;;15.75;6.65;;;;;;;6.26;55.16;98530.78;4988450;28;20065;-83
2023/03/08 00:27:35;;;;;;;13.25;6.57;;;;;;;6.25;55.02;98532.56;4958421;28;20050;-83
2023/03/08 00:30:04;;;;;;;13.05;6.93;;;;;;;6.24;54.93;98528.28;4967678;28;20074;-83
2023/03/08 00:32:31;;;;;;;11.68;6.18;;;;;;;6.22;55.14;98530.22;4968190;28;20046;-83
2023/03/08 00:34:58;;;;;;;12.80;6.53;;;;;;;6.18;55.12;98536.75;4967897;28;20073;-83
2023/03/08 00:37:25;;;;;;;14.82;7.15;;;;;;;6.19;54.64;98535.78;4983361;28;20054;-83
2023/03/08 00:39:52;;;;;;;13.13;6.03;;;;;;;6.23;55.17;98536.31;4967084;28;20046;-83
2023/03/08 00:42:20;;;;;;;11.82;6.47;;;;;;;6.22;55.08;98524.94;4976968;28;20077;-83
2023/03/08 00:44:47;;;;;;;13.88;6.70;;;;;;;6.20;54.98;98526.91;4991750;28;20047;-83
2023/03/08 00:47:14;;;;;;;14.63;6.65;;;;;;;6.21;54.98;98522.47;4973664;28;20128;-83
2023/03/08 00:49:41;;;;;;;16.90;6.63;;;;;;;6.21;55.14;98525.13;4985627;28;20107;-82
2023/03/08 00:52:09;;;;;;;12.85;6.43;;;;;;;6.21;54.80;98527.75;4981888;28;20054;-83
2023/03/08 00:54:36;;;;;;;15.13;6.82;;;;;;;6.23;54.95;98525.78;4952673;28;20046;-83
2023/03/08 00:57:03;;;;;;;14.85;7.40;;;;;;;6.21;54.80;98517.22;4979753;28;20049;-83
2023/03/08 00:59:31;;;;;;;18.80;7.72;;;;;;;6.21;55.16;98510.13;4968393;28;20069;-83
2023/03/08 01:01:59;;;;;;;14.73;7.10;;;;;;;6.21;55.01;98512.75;4970401;28;20394;-82
2023/03/08 01:04:26;;;;;;;14.55;6.80;;;;;;;6.14;54.65;98501.09;4972556;28;20043;-83
2023/03/08 01:06:52;;;;;;;15.65;6.95;;;;;;;6.15;55.10;98508.03;4985204;28;20054;-83
2023/03/08 01:09:19;;;;;;;15.88;7.03;;;;;;;6.06;54.85;98503.63;4963412;28;20049;-83
2023/03/08 01:11:46;;;;;;;12.32;6.00;;;;;;;6.05;54.98;98508.03;4984571;28;20042;-83
2023/03/08 01:14:13;;;;;;;13.20;6.50;;;;;;;6.09;54.92;98508.59;4981782;28;20857;-83
2023/03/08 01:16:39;;;;;;;15.75;6.70;;;;;;;6.06;55.04;98504.44;4983416;28;20390;-82
2023/03/08 01:19:06;;;;;;;12.13;6.28;;;;;;;6.07;55.20;98500.00;4960161;28;20101;-82
2023/03/08 01:21:33;;;;;;;16.45;7.22;;;;;;;6.05;55.03;98499.31;4949472;28;20050;-83
2023/03/08 01:24:00;;;;;;;12.75;6.72;;;;;;;6.01;55.10;98493.50;4963250;28;20046;-82
2023/03/08 01:26:27;;;;;;;14.15;7.65;;;;;;;6.00;55.27;98496.25;4961712;28;20046;-83
2023/03/08 01:28:54;;;;;;;15.63;7.63;;;;;;;5.99;55.44;98495.44;4959708;28;20038;-82
2023/03/08 01:31:23;;;;;;;17.15;7.05;;;;;;;5.93;55.49;98501.25;4948772;28;20058;-83
2023/03/08 01:33:52;;;;;;;14.00;7.00;;;;;;;5.97;55.51;98500.00;4945525;28;20046;-84
2023/03/08 01:36:21;;;;;;;15.82;6.60;;;;;;;5.89;55.38;98502.47;4965739;28;20054;-83
2023/03/08 01:38:48;;;;;;;14.85;7.28;;;;;;;5.90;55.46;98498.84;4981854;28;20038;-83
2023/03/08 01:41:20;;;;;;;16.50;7.55;;;;;;;5.84;55.32;98502.88;4948364;28;20039;-83
2023/03/08 01:43:48;;;;;;;18.15;7.53;;;;;;;5.90;55.84;98505.94;4992329;28;20455;-83
2023/03/08 01:46:27;;;;;;;15.40;7.35;;;;;;;5.81;55.42;98492.63;4987514;28;20060;-83
2023/03/08 01:49:08;;;;;;;16.13;7.07;;;;;;;5.85;55.87;98491.38;4992074;28;20489;-83
2023/03/08 01:51:46;;;;;;;15.30;7.60;;;;;;;5.83;55.63;98489.88;4938935;28;20046;-83
2023/03/08 01:54:28;;;;;;;15.15;6.82;;;;;;;5.79;55.32;98477.94;4947554;28;20073;-83
2023/03/08 01:57:00;;;;;;;14.02;7.03;;;;;;;5.81;55.40;98478.63;4967905;28;20105;-83
2023/03/08 01:59:29;;;;;;;15.05;7.05;;;;;;;5.76;56.05;98486.94;4962599;28;20486;-83
2023/03/08 02:01:56;;;;;;;14.07;6.55;;;;;;;5.76;56.50;98491.38;4959931;28;20051;-83
2023/03/08 02:04:24;;;;;;;17.63;8.65;;;;;;;5.75;56.70;98479.16;4938323;28;20047;-83
2023/03/08 02:06:51;;;;;;;17.73;7.22;;;;;;;5.76;56.34;98479.03;4950272;28;20053;-84
2023/03/08 02:09:21;;;;;;;11.60;6.88;;;;;;;5.72;56.16;98472.38;4963778;28;20461;-83
2023/03/08 02:11:48;;;;;;;13.68;7.35;;;;;;;5.74;56.00;98478.34;4954907;28;20101;-83
2023/03/08 02:14:15;;;;;;;15.73;7.35;;;;;;;5.69;56.19;98477.94;4952506;28;20050;-83
2023/03/08 02:16:45;;;;;;;14.40;7.28;;;;;;;5.68;56.53;98480.72;4948082;28;20047;-83
2023/03/08 02:19:17;;;;;;;13.80;7.07;;;;;;;5.67;56.30;98477.22;4972356;28;20043;-83
2023/03/08 02:21:45;;;;;;;12.82;6.88;;;;;;;5.63;56.76;98471.41;4970087;28;20046;-83
2023/03/08 02:24:21;;;;;;;14.27;7.35;;;;;;;5.55;57.14;98463.38;4985680;28;20092;-83
2023/03/08 02:26:50;;;;;;;15.73;7.07;;;;;;;5.57;56.72;98468.50;4920549;28;20122;-83
2023/03/08 02:29:17;;;;;;;14.57;7.13;;;;;;;5.55;57.02;98460.75;4966675;28;20046;-83
2023/03/08 02:31:44;;;;;;;15.32;7.60;;;;;;;5.52;57.18;98460.16;4977516;28;20042;-82
2023/03/08 02:34:10;;;;;;;17.00;6.72;;;;;;;5.50;57.34;98456.88;4984389;28;20045;-83
2023/03/08 02:36:37;;;;;;;16.15;7.65;;;;;;;5.44;57.76;98453.81;4980399;28;20103;-83
2023/03/08 02:39:04;;;;;;;15.02;7.68;;;;;;;5.43;57.78;98448.66;4989420;28;20053;-83
2023/03/08 02:41:30;;;;;;;13.82;7.63;;;;;;;5.43;57.59;98452.13;4977427;28;20050;-83
2023/03/08 02:43:57;;;;;;;14.05;7.22;;;;;;;5.41;57.84;98440.91;4967136;28;20456;-83
2023/03/08 02:46:24;;;;;;;13.32;6.88;;;;;;;5.41;57.94;98437.44;4985308;28;20042;-83
2023/03/08 02:48:51;;;;;;;20.08;7.85;;;;;;;5.43;57.49;98444.22;4972471;28;20400;-83
2023/03/08 02:51:20;;;;;;;14.05;7.18;;;;;;;5.40;57.85;98444.50;4983547;28;20512;-83
2023/03/08 02:53:46;;;;;;;17.20;7.30;;;;;;;5.37;57.83;98438.72;4986836;28;20072;-82
2023/03/08 02:56:13;;;;;;;15.27;6.78;;;;;;;5.39;58.00;98434.97;4979760;28;20112;-83
2023/03/08 02:58:40;;;;;;;15.15;7.20;;;;;;;5.35;58.17;98433.56;4985415;28;20050;-82
2023/03/08 03:01:13;;;;;;;18.45;7.43;;;;;;;5.30;58.31;98425.25;4986030;28;20069;-83
2023/03/08 03:03:41;;;;;;;13.80;6.85;;;;;;;5.37;58.35;98430.81;4999180;28;20407;-83
2023/03/08 03:06:18;;;;;;;15.25;6.68;;;;;;;5.20;58.62;98434.94;4990044;28;20126;-83
2023/03/08 03:08:49;;;;;;;17.95;7.10;;;;;;;5.33;58.48;98424.16;4963583;28;20100;-83
2023/03/08 03:11:19;;;;;;;21.15;7.75;;;;;;;5.30;58.40;98425.25;4952909;28;20505;-82
2023/03/08 03:13:53;;;;;;;15.65;7.22;;;;;;;5.24;58.68;98420.53;4973953;28;20504;-82
2023/03/08 03:16:20;;;;;;;17.55;7.97;;;;;;;5.28;58.70;98418.47;4959367;28;20050;-82
2023/03/08 03:18:47;;;;;;;14.38;7.32;;;;;;;5.21;58.86;98426.88;4942865;28;20043;-83
2023/03/08 03:21:14;;;;;;;12.23;6.88;;;;;;;5.22;59.12;98418.03;4966658;28;20050;-83
2023/03/08 03:23:41;;;;;;;12.23;6.75;;;;;;;5.25;58.97;98414.31;4937033;28;20050;-82
2023/03/08 03:26:17;;;;;;;15.75;7.50;;;;;;;5.18;59.31;98410.53;4953778;28;20097;-83
2023/03/08 03:28:48;;;;;;;13.25;7.03;;;;;;;5.17;59.33;98407.09;4990965;28;20042;-83
2023/03/08 03:31:18;;;;;;;14.55;7.28;;;;;;;5.19;58.86;98397.25;4959713;28;20054;-83
2023/03/08 03:33:46;;;;;;;15.30;7.13;;;;;;;5.16;59.33;98396.69;4955970;28;20057;-83
2023/03/08 03:36:16;;;;;;;15.88;7.50;;;;;;;5.17;58.83;98390.47;4986335;28;20509;-82
2023/03/08 03:38:45;;;;;;;13.48;7.15;;;;;;;5.17;58.94;98393.94;4990375;28;20121;-82
2023/03/08 03:41:17;;;;;;;13.02;6.70;;;;;;;5.12;59.29;98397.94;4950845;28;20046;-83
2023/03/08 03:43:44;;;;;;;14.75;6.95;;;;;;;5.11;59.38;98393.63;4991793;28;20445;-83
2023/03/08 03:46:14;;;;;;;12.65;6.50;;;;;;;5.09;59.54;98391.16;4985038;28;20050;-83
2023/03/08 03:48:43;;;;;;;16.85;7.28;;;;;;;5.12;59.74;98396.16;4971554;28;20053;-83
2023/03/08 03:51:16;;;;;;;13.93;6.90;;;;;;;5.10;59.58;98399.88;4970508;28;20052;-83
2023/03/08 03:53:47;;;;;;;14.13;6.45;;;;;;;5.10;59.58;98403.34;4954676;28;20104;-83
2023/03/08 03:56:19;;;;;;;13.73;6.57;;;;;;;5.10;59.85;98391.97;4965247;28;20449;-83
2023/03/08 03:58:47;;;;;;;15.43;6.73;;;;;;;5.09;59.60;98385.91;4982709;28;20042;-83
2023/03/08 04:01:24;;;;;;;16.75;7.90;;;;;;;5.08;59.58;98386.03;4973651;28;20061;-83
2023/03/08 04:03:55;;;;;;;19.95;9.57;;;;;;;5.05;59.74;98381.03;4952403;28;20382;-83
2023/03/08 04:06:31;;;;;;;17.55;9.70;;;;;;;5.03;59.86;98370.63;4954914;28;20050;-83
2023/03/08 04:09:05;;;;;;;14.90;7.28;;;;;;;5.01;60.28;98377.84;4933058;28;20051;-83
2023/03/08 04:11:37;;;;;;;21.15;11.30;;;;;;;5.00;60.31;98370.91;4984697;28;20574;-82
2023/03/08 04:14:13;;;;;;;27.70;16.67;;;;;;;4.97;60.36;98368.56;4951570;28;20052;-83
2023/03/08 04:16:40;;;;;;;20.33;13.63;;;;;;;4.98;60.79;98368.41;4961589;28;20057;-83
2023/03/08 04:19:14;;;;;;;19.10;11.02;;;;;;;5.03;60.31;98367.19;4953129;28;20614;-83
2023/03/08 04:21:47;;;;;;;14.85;8.43;;;;;;;5.04;60.29;98361.81;4974448;28;20134;-83
2023/03/08 04:24:16;;;;;;;27.45;19.23;;;;;;;5.05;59.97;98355.56;4948642;28;20046;-83
2023/03/08 04:26:46;;;;;;;95.47;39.20;;;;;;;5.00;60.42;98352.50;4974018;28;20046;-83
2023/03/08 04:29:17;;;;;;;70.15;30.15;;;;;;;5.04;60.19;98355.69;4985169;28;20158;-83
2023/03/08 04:31:44;;;;;;;82.85;35.75;;;;;;;4.99;60.91;98342.97;4950347;28;20127;-83
2023/03/08 04:34:15;;;;;;;70.32;31.48;;;;;;;4.95;61.13;98347.66;4968448;28;20074;-83
2023/03/08 04:36:45;;;;;;;53.78;21.70;;;;;;;4.95;61.14;98345.03;4993684;28;20052;-83
2023/03/08 04:39:12;;;;;;;30.48;12.90;;;;;;;4.93;61.49;98354.84;4971650;28;20133;-83
2023/03/08 04:41:39;;;;;;;19.50;10.45;;;;;;;4.96;61.68;98351.97;4953118;28;20062;-83
2023/03/08 04:44:13;;;;;;;16.50;8.75;;;;;;;4.94;61.67;98347.81;4945848;28;20073;-83
2023/03/08 04:46:45;;;;;;;14.68;7.72;;;;;;;4.94;61.70;98347.81;4987695;28;20042;-83
2023/03/08 04:49:17;;;;;;;13.07;6.65;;;;;;;4.88;61.60;98338.63;4973370;28;20981;-83
2023/03/08 04:51:50;;;;;;;15.98;6.32;;;;;;;4.89;61.50;98328.97;4954155;28;20517;-83
2023/03/08 04:54:17;;;;;;;13.15;6.68;;;;;;;4.90;61.47;98328.00;4965701;28;20050;-83
2023/03/08 04:56:49;;;;;;;14.35;6.82;;;;;;;4.90;61.74;98330.63;4966580;28;20397;-83
2023/03/08 04:59:17;;;;;;;12.13;6.07;;;;;;;4.89;61.78;98316.66;4967785;28;20103;-83
2023/03/08 05:01:44;;;;;;;14.02;7.28;;;;;;;4.90;61.45;98314.84;4957230;28;20045;-83
2023/03/08 05:04:11;;;;;;;14.00;7.18;;;;;;;4.91;61.57;98317.34;4981661;28;20058;-83
2023/03/08 05:06:40;;;;;;;14.57;6.53;;;;;;;4.88;62.11;98325.47;4977542;28;20062;-83
2023/03/08 05:09:10;;;;;;;12.68;6.63;;;;;;;4.89;62.41;98318.44;4947286;28;20050;-83
2023/03/08 05:11:39;;;;;;;13.63;6.32;;;;;;;4.89;62.28;98313.19;4954117;28;20054;-84
2023/03/08 05:14:07;;;;;;;10.73;6.18;;;;;;;4.83;62.86;98306.66;4954492;28;20069;-84
2023/03/08 05:16:34;;;;;;;15.30;6.97;;;;;;;4.78;62.97;98303.59;4958960;28;20050;-83
2023/03/08 05:19:02;;;;;;;13.52;6.80;;;;;;;4.81;62.96;98300.72;4949115;28;20054;-83
2023/03/08 05:21:34;;;;;;;12.48;6.15;;;;;;;4.77;63.42;98294.06;4973646;28;20058;-84
2023/03/08 05:24:01;;;;;;;12.07;6.85;;;;;;;4.75;63.55;98288.09;4958596;28;20109;-82
2023/03/08 05:26:32;;;;;;;13.10;6.07;;;;;;;4.79;62.96;98286.88;4951670;28;20125;-83
2023/03/08 05:29:02;;;;;;;15.77;6.53;;;;;;;4.76;62.95;98287.16;4964002;28;20063;-83
2023/03/08 05:31:31;;;;;;;12.10;6.07;;;;;;;4.81;62.75;98294.59;4968603;28;20050;-83
2023/03/08 05:34:02;;;;;;;12.88;5.57;;;;;;;4.81;63.35;98291.97;4959976;28;20569;-83
2023/03/08 05:36:34;;;;;;;11.45;6.35;;;;;;;4.82;63.71;98298.91;4978967;28;20061;-83
2023/03/08 05:39:01;;;;;;;12.23;6.38;;;;;;;4.78;63.83;98311.50;4979737;28;20145;-83
2023/03/08 05:41:39;;;;;;;14.90;7.78;;;;;;;4.85;63.32;98314.41;4948518;28;20039;-83
2023/03/08 05:44:07;;;;;;;23.20;9.48;;;;;;;4.82;63.25;98307.63;4968505;28;20054;-83
2023/03/08 05:46:37;;;;;;;17.65;8.85;;;;;;;4.85;63.17;98303.91;4959471;28;20046;-83
2023/03/08 05:49:05;;;;;;;14.82;6.70;;;;;;;4.81;62.66;98294.59;4987361;28;20047;-83
2023/03/08 05:51:34;;;;;;;15.32;6.63;;;;;;;4.81;62.30;98284.09;4977550;28;20601;-83
2023/03/08 05:54:01;;;;;;;16.45;6.85;;;;;;;4.84;62.43;98292.56;4967747;28;20054;-83
2023/03/08 05:56:30;;;;;;;11.60;6.05;;;;;;;4.88;62.20;98293.09;4982990;28;20504;-83
2023/03/08 05:59:03;;;;;;;;;;;;;;;4.64;63.60;98296.97;4974482;28;20100;-83
2023/03/08 06:01:30;;;;;;;13.23;6.25;;;;;;;4.74;63.66;98292.53;4994835;28;19928;-83
2023/03/08 06:04:07;;;;;;;13.00;6.80;;;;;;;4.76;63.45;98297.69;4952280;28;20125;-83
2023/03/08 06:06:37;;;;;;;12.38;7.15;;;;;;;4.75;63.46;98298.63;4967361;28;20042;-83
2023/03/08 06:09:04;;;;;;;17.73;8.30;;;;;;;4.78;63.07;98295.72;4979343;28;20057;-83
2023/03/08 06:11:33;;;;;;;16.27;7.68;;;;;;;4.80;63.54;98280.63;4981686;28;20042;-83
2023/03/08 06:14:01;;;;;;;15.68;8.70;;;;;;;4.85;63.40;98288.13;4979021;28;20065;-83
2023/03/08 06:16:31;;;;;;;17.63;9.23;;;;;;;4.83;63.37;98295.31;4969645;28;20398;-83
2023/03/08 06:18:57;;;;;;;19.15;9.07;;;;;;;4.86;62.87;98292.41;4945806;28;20113;-83
2023/03/08 06:21:25;;;;;;;16.30;8.15;;;;;;;4.78;62.96;98293.94;4951206;28;20042;-83
2023/03/08 06:23:58;;;;;;;14.98;7.93;;;;;;;4.82;62.78;98283.97;4964966;28;20109;-83
2023/03/08 06:26:25;;;;;;;14.57;7.63;;;;;;;4.82;62.79;98270.81;4934525;28;20120;-83
2023/03/08 06:28:52;;;;;;;16.38;7.53;;;;;;;4.82;63.02;98272.63;4950792;28;20047;-83
2023/03/08 06:31:20;;;;;;;18.42;7.93;;;;;;;4.83;62.20;98251.44;4935340;28;20044;-83
2023/03/08 06:33:47;;;;;;;17.48;8.20;;;;;;;4.77;63.33;98244.94;4958667;28;20054;-83
2023/03/08 06:36:20;;;;;;;19.60;9.73;;;;;;;4.79;63.31;98240.38;4967558;28;20544;-83
2023/03/08 06:38:49;;;;;;;20.67;10.02;;;;;;;4.81;63.14;98236.75;4990142;28;20100;-83
2023/03/08 06:41:17;;;;;;;21.15;8.98;;;;;;;4.78;63.05;98238.72;4988664;28;20054;-83
2023/03/08 06:43:47;;;;;;;24.63;10.65;;;;;;;4.88;62.66;98251.84;4961730;28;20499;-83
2023/03/08 06:46:16;;;;;;;15.32;7.80;;;;;;;4.89;62.58;98250.91;4982155;28;20489;-83
2023/03/08 06:48:43;;;;;;;18.58;8.20;;;;;;;4.97;62.03;98231.78;4987841;28;20042;-83
2023/03/08 06:51:10;;;;;;;16.90;7.95;;;;;;;5.00;61.95;98232.31;4970455;28;20463;-83
2023/03/08 06:53:39;;;;;;;17.25;8.07;;;;;;;4.96;62.86;98223.06;4979939;28;20047;-83
2023/03/08 06:56:08;;;;;;;15.40;7.53;;;;;;;5.00;62.74;98228.88;4968824;28;20058;-83
2023/03/08 06:58:35;;;;;;;14.35;7.68;;;;;;;5.04;62.57;98232.03;4980622;28;20046;-83
2023/03/08 07:01:08;;;;;;;15.23;7.22;;;;;;;5.04;62.71;98229.41;4997386;28;20068;-83
2023/03/08 07:03:35;;;;;;;13.57;6.95;;;;;;;5.01;62.75;98217.38;4987999;28;20148;-83
2023/03/08 07:06:05;;;;;;;18.17;8.30;;;;;;;5.06;63.17;98216.94;4986369;28;20047;-84
2023/03/08 07:08:38;;;;;;;16.48;8.00;;;;;;;5.04;63.16;98221.50;4961814;28;20058;-83
2023/03/08 07:11:07;;;;;;;17.83;9.10;;;;;;;5.07;63.14;98223.88;4977432;28;21194;-83
2023/03/08 07:13:34;;;;;;;34.45;15.20;;;;;;;5.07;62.86;98210.72;4971686;28;20072;-83
2023/03/08 07:16:08;;;;;;;37.15;15.93;;;;;;;5.02;64.06;98207.69;4984443;28;20050;-83
2023/03/08 07:18:35;;;;;;;38.00;17.55;;;;;;;5.07;63.53;98210.72;4997907;28;20498;-83
2023/03/08 07:21:02;;;;;;;42.63;20.17;;;;;;;5.06;63.96;98209.06;4982460;28;20056;-83
2023/03/08 07:23:28;;;;;;;50.97;21.92;;;;;;;5.07;63.97;98206.28;4978598;28;20108;-83
2023/03/08 07:25:55;;;;;;;34.03;15.80;;;;;;;5.10;63.78;98202.56;4983446;28;20053;-83
2023/03/08 07:28:22;;;;;;;22.13;10.60;;;;;;;5.10;63.38;98200.75;4966492;28;20122;-83
2023/03/08 07:30:51;;;;;;;22.60;11.32;;;;;;;5.11;63.61;98198.94;4985241;28;20051;-83
2023/03/08 07:33:19;;;;;;;19.15;10.02;;;;;;;5.12;63.59;98195.34;4984526;28;20060;-82
2023/03/08 07:35:46;;;;;;;21.52;9.82;;;;;;;5.11;63.81;98191.88;4966497;28;20047;-83
2023/03/08 07:38:13;;;;;;;21.20;10.10;;;;;;;5.14;63.37;98191.63;4983170;28;20042;-83
2023/03/08 07:40:40;;;;;;;21.33;9.90;;;;;;;5.11;63.38;98178.72;4977962;28;20490;-82
2023/03/08 07:43:06;;;;;;;16.30;9.05;;;;;;;5.13;63.21;98178.59;4949085;28;20056;-83
2023/03/08 07:45:49;;;;;;;21.15;9.80;;;;;;;5.12;63.89;98183.03;4967021;28;20049;-83
2023/03/08 07:48:16;;;;;;;23.98;9.65;;;;;;;5.12;64.42;98176.94;4964323;28;20062;-82
2023/03/08 07:50:42;;;;;;;20.20;9.93;;;;;;;5.15;64.12;98174.03;4971660;28;20076;-83
2023/03/08 07:53:09;;;;;;;19.30;9.32;;;;;;;5.16;64.27;98167.78;4974575;28;20050;-82
2023/03/08 07:55:37;;;;;;;19.95;8.85;;;;;;;5.16;64.71;98160.69;4982819;28;20057;-82
2023/03/08 07:58:03;;;;;;;14.88;7.80;;;;;;;5.14;65.63;98154.78;4986618;28;20050;-82
2023/03/08 08:00:30;;;;;;;19.38;9.50;;;;;;;5.10;66.54;98147.31;4946159;28;20067;-82
2023/03/08 08:02:57;;;;;;;19.00;9.75;;;;;;;5.05;68.05;98147.72;4961495;28;20104;-82
2023/03/08 08:05:24;;;;;;;18.25;8.90;;;;;;;5.14;67.09;98149.50;4979804;28;20446;-82
2023/03/08 08:07:51;;;;;;;19.63;8.20;;;;;;;5.07;68.79;98150.22;4950803;28;20070;-82
2023/03/08 08:10:17;;;;;;;15.65;8.07;;;;;;;5.03;69.32;98149.66;4971558;28;20458;-82
2023/03/08 08:12:44;;;;;;;17.05;8.50;;;;;;;4.93;70.48;98140.97;4969563;28;20099;-82
2023/03/08 08:15:11;;;;;;;15.70;8.02;;;;;;;4.89;71.63;98143.06;4985076;28;20044;-82
2023/03/08 08:17:38;;;;;;;18.35;9.18;;;;;;;4.81;72.42;98142.94;4969033;28;20042;-82
2023/03/08 08:20:08;;;;;;;19.60;9.38;;;;;;;4.73;73.53;98122.59;4972691;28;20046;-82
2023/03/08 08:22:35;;;;;;;19.20;8.90;;;;;;;4.69;74.12;98123.03;4977820;28;20045;-82
2023/03/08 08:25:05;;;;;;;16.77;8.75;;;;;;;4.60;75.82;98114.16;4959547;28;20047;-82
2023/03/08 08:27:32;;;;;;;21.92;9.57;;;;;;;4.56;75.39;98108.38;4979035;28;20504;-82
2023/03/08 08:30:00;;;;;;;16.88;8.65;;;;;;;4.54;75.82;98101.59;4983417;28;20054;-82
2023/03/08 08:32:27;;;;;;;13.55;7.97;;;;;;;4.49;76.32;98085.41;4983438;28;20037;-82
2023/03/08 08:34:53;;;;;;;20.85;9.13;;;;;;;4.41;77.03;98080.03;4983703;28;20051;-82
2023/03/08 08:37:20;;;;;;;18.90;8.88;;;;;;;4.40;76.70;98078.34;4981954;28;20101;-82
2023/03/08 08:39:47;;;;;;;17.45;8.93;;;;;;;4.29;78.47;98071.47;4984624;28;20042;-82
2023/03/08 08:42:13;;;;;;;21.35;9.68;;;;;;;4.30;77.85;98062.59;4987088;28;20064;-82
2023/03/08 08:44:40;;;;;;;17.00;9.13;;;;;;;4.24;78.66;98045.59;4988879;28;20057;-82
2023/03/08 08:47:07;;;;;;;27.80;11.30;;;;;;;4.23;79.37;98043.13;4977947;28;20132;-82
2023/03/08 08:49:34;;;;;;;37.13;14.52;;;;;;;4.25;79.11;98031.50;4971856;28;20073;-82
2023/03/08 08:52:01;;;;;;;32.83;14.05;;;;;;;4.17;80.09;98026.09;4996247;28;20076;-82
2023/03/08 08:54:27;;;;;;;41.42;16.85;;;;;;;4.19;79.83;98023.34;4980105;28;20136;-82
2023/03/08 08:56:54;;;;;;;36.58;14.40;;;;;;;4.18;79.76;98026.97;4966685;28;20093;-82
2023/03/08 08:59:21;;;;;;;23.25;10.77;;;;;;;4.21;79.59;98024.88;4983593;28;20038;-82
2023/03/08 09:01:48;;;;;;;16.23;9.68;;;;;;;4.18;79.87;98030.41;4976813;28;20490;-82
2023/03/08 09:04:15;;;;;;;21.38;9.57;;;;;;;4.17;80.00;98030.53;4965481;28;20113;-82
2023/03/08 09:06:42;;;;;;;20.08;10.27;;;;;;;4.17;80.44;98020.84;4999456;28;20057;-81
2023/03/08 09:09:09;;;;;;;22.48;10.07;;;;;;;4.22;81.07;98015.19;4969940;28;20105;-81
2023/03/08 09:11:36;;;;;;;22.75;11.15;;;;;;;4.24;81.06;97987.81;4974904;28;20058;-81
2023/03/08 09:14:19;;;;;;;28.55;12.93;;;;;;;4.32;81.21;98003.69;4992016;28;20142;-81
2023/03/08 09:16:45;;;;;;;27.15;12.45;;;;;;;4.37;81.34;97984.03;4981507;28;20132;-81
2023/03/08 09:19:12;;;;;;;26.13;12.98;;;;;;;4.42;81.75;97976.56;4986797;28;20053;-81
2023/03/08 09:21:39;;;;;;;25.65;13.07;;;;;;;4.44;81.49;97985.97;4986174;28;20097;-81
2023/03/08 09:24:08;;;;;;;28.33;12.73;;;;;;;4.47;81.96;97983.03;4967327;28;20057;-81
2023/03/08 09:26:35;;;;;;;25.33;13.07;;;;;;;4.47;82.29;97982.22;4959912;28;20056;-81
2023/03/08 09:29:04;;;;;;;29.48;12.52;;;;;;;4.47;82.61;97980.41;4984185;28;20044;-81
2023/03/08 09:31:32;;;;;;;25.05;11.95;;;;;;;4.43;82.58;97981.69;4987144;28;20038;-81
2023/03/08 09:34:00;;;;;;;21.73;11.23;;;;;;;4.44;83.05;97970.19;4967066;28;20050;-81
2023/03/08 09:36:27;;;;;;;21.73;11.68;;;;;;;4.44;83.17;97957.06;4984601;28;20404;-81
2023/03/08 09:38:55;;;;;;;24.20;11.18;;;;;;;4.52;82.47;97944.00;4959381;28;20498;-81
2023/03/08 09:41:46;;;;;;;22.60;10.63;;;;;;;4.43;84.95;97960.66;4969992;28;20064;-81
2023/03/08 09:44:54;;;;;;;27.48;11.98;;;;;;;4.42;84.55;97947.66;4929862;28;20166;-81
2023/03/08 09:47:40;;;;;;;20.08;10.65;;;;;;;4.54;83.46;97941.25;4939616;28;20545;-81
2023/03/08 09:50:10;;;;;;;26.33;10.95;;;;;;;4.54;84.44;97947.34;4933661;28;20076;-81
2023/03/08 09:53:13;;;;;;;30.05;11.65;;;;;;;4.50;85.87;97946.00;4974954;28;20057;-82
2023/03/08 09:56:03;;;;;;;26.40;11.23;;;;;;;4.52;86.39;97936.13;4899910;28;20051;-82
2023/03/08 09:58:40;;;;;;;27.63;14.85;;;;;;;4.52;85.68;97937.94;4954805;28;20057;-82
2023/03/08 10:01:37;;;;;;;30.63;15.27;;;;;;;4.48;86.93;97926.91;4994011;28;20112;-82
2023/03/08 10:04:18;;;;;;;27.23;15.02;;;;;;;4.56;85.09;97926.19;4963075;28;20483;-82
2023/03/08 10:07:04;;;;;;;23.75;12.55;;;;;;;4.45;87.51;97919.31;4974633;28;20537;-82
2023/03/08 10:09:46;;;;;;;26.00;11.10;;;;;;;4.44;86.71;97920.25;4926562;28;20043;-82
2023/03/08 10:12:29;;;;;;;31.83;13.80;;;;;;;4.45;87.63;97914.06;4957200;28;20054;-82
2023/03/08 10:15:00;;;;;;;45.55;18.40;;;;;;;4.56;85.67;97911.22;4946729;28;20461;-82
2023/03/08 10:17:38;;;;;;;27.65;13.43;;;;;;;4.53;86.79;97913.34;4950182;28;20059;-82
2023/03/08 10:20:23;;;;;;;30.83;13.60;;;;;;;4.54;87.66;97912.34;4945616;28;20088;-82
2023/03/08 10:22:58;;;;;;;25.90;13.07;;;;;;;4.50;87.10;97903.94;4936633;28;20051;-82
2023/03/08 10:25:32;;;;;;;24.98;11.73;;;;;;;4.54;87.57;97886.88;4946029;28;20154;-82
2023/03/08 10:28:02;;;;;;;24.58;12.10;;;;;;;4.58;86.65;97895.31;4941378;28;20055;-82
2023/03/08 10:30:34;;;;;;;21.77;11.10;;;;;;;4.60;87.13;97890.72;4952926;28;20397;-82
2023/03/08 10:33:05;;;;;;;24.88;11.90;;;;;;;4.59;88.12;97886.44;4936849;28;20051;-82
2023/03/08 10:35:33;;;;;;;27.70;12.18;;;;;;;4.64;86.79;97889.47;4939872;28;20137;-82
2023/03/08 10:38:00;;;;;;;25.23;11.82;;;;;;;4.65;87.14;97882.41;4942419;28;20054;-82
2023/03/08 10:40:27;;;;;;;30.73;12.05;;;;;;;4.67;86.51;97875.22;4969985;28;20057;-82
2023/03/08 10:42:59;;;;;;;26.80;12.80;;;;;;;4.66;87.39;97876.19;4972116;28;20497;-82
2023/03/08 10:45:27;;;;;;;34.55;15.73;;;;;;;4.63;87.29;97879.09;4953289;28;20057;-82
2023/03/08 10:48:02;;;;;;;26.25;13.77;;;;;;;4.69;86.78;97866.19;4965220;28;20039;-82
2023/03/08 10:50:34;;;;;;;28.63;12.45;;;;;;;4.72;85.93;97867.72;4966080;28;20050;-82
2023/03/08 10:53:30;;;;;;;28.95;12.95;;;;;;;4.62;88.66;97869.56;4969326;28;20046;-82
2023/03/08 10:55:59;;;;;;;26.98;11.73;;;;;;;4.66;87.28;97866.50;4915139;28;20123;-82
2023/03/08 10:58:26;;;;;;;29.67;12.88;;;;;;;4.64;87.62;97865.00;4951430;28;20462;-82
2023/03/08 11:00:55;;;;;;;31.75;14.13;;;;;;;4.71;87.63;97855.56;4981565;28;20494;-82
2023/03/08 11:03:23;;;;;;;26.88;13.05;;;;;;;4.73;86.79;97857.06;4968806;28;20063;-82
2023/03/08 11:06:01;;;;;;;27.90;13.13;;;;;;;4.70;89.31;97857.31;4969848;28;20063;-82
2023/03/08 11:08:39;;;;;;;26.85;13.00;;;;;;;4.72;87.53;97857.19;4989947;28;20432;-82
2023/03/08 11:11:11;;;;;;;28.08;13.23;;;;;;;4.72;88.18;97851.94;4979103;28;20449;-82
2023/03/08 11:13:43;;;;;;;31.17;14.23;;;;;;;4.73;87.25;97848.31;4983741;28;20498;-82
2023/03/08 11:16:35;;;;;;;29.98;14.57;;;;;;;4.64;89.01;97846.59;4978095;28;20158;-82
2023/03/08 11:19:09;;;;;;;28.05;12.57;;;;;;;4.71;87.86;97837.97;4960666;28;20102;-82
2023/03/08 11:21:45;;;;;;;26.75;12.98;;;;;;;4.74;87.99;97850.00;4984756;28;20525;-82
2023/03/08 11:24:17;;;;;;;27.85;13.40;;;;;;;4.76;87.67;97845.41;4968844;28;20126;-82
2023/03/08 11:27:05;;;;;;;26.63;12.93;;;;;;;4.70;90.84;97833.66;4948314;28;20070;-82
2023/03/08 11:29:53;;;;;;;28.80;13.88;;;;;;;4.75;90.43;97831.41;4972330;28;20054;-83
2023/03/08 11:33:01;;;;;;;24.63;13.10;;;;;;;4.83;89.14;97835.13;4981950;28;20073;-82
2023/03/08 11:36:01;;;;;;;30.60;14.15;;;;;;;4.79;89.36;97827.53;4923024;28;20046;-82
2023/03/08 11:38:29;;;;;;;29.83;14.88;;;;;;;4.87;87.44;97818.91;4966541;28;20047;-82
2023/03/08 11:41:08;;;;;;;29.05;14.30;;;;;;;4.81;88.94;97808.13;4959636;28;20410;-82
2023/03/08 11:44:16;;;;;;;34.80;15.82;;;;;;;4.78;89.49;97811.88;4990044;28;20047;-82
2023/03/08 11:47:21;;;;;;;32.33;14.65;;;;;;;4.76;89.81;97805.97;4947053;28;20046;-82